Time;durP1;ratioP1;P1;durP2;ratioP2;P2;SDS_P1;SDS_P2;PMS_P1;PMS_P2;Temp;Humidity;BMP_temperature;BMP_pressure;BME280_temperature;BME280_humidity;BME280_pressure;Samples;Min_cycle;Max_cycle;Signal;HPM_P1;HPM_P2
2021/12/24 00:02:08;;;;;;;17.77;14.35;;;6.00;99.90;;;;;;4956387;28;20336;-69
2021/12/24 00:04:36;;;;;;;17.55;15.55;;;6.10;99.90;;;;;;4937681;29;20219;-69
2021/12/24 00:07:04;;;;;;;20.80;15.70;;;6.00;99.90;;;;;;4933689;29;20223;-68
2021/12/24 00:09:35;;;;;;;19.65;15.32;;;6.00;99.90;;;;;;4933721;29;20259;-69
2021/12/24 00:12:11;;;;;;;16.95;15.25;;;6.00;99.90;;;;;;4933566;29;20286;-68
2021/12/24 00:14:43;;;;;;;18.40;15.13;;;6.00;99.90;;;;;;4933626;29;20235;-68
2021/12/24 00:17:14;;;;;;;18.23;15.18;;;6.00;99.90;;;;;;4934059;29;20227;-69
2021/12/24 00:19:55;;;;;;;16.63;14.57;;;6.00;99.90;;;;;;4936335;29;20251;-68
2021/12/24 00:23:01;;;;;;;19.75;15.25;;;6.00;99.90;;;;;;4937709;29;20304;-68
2021/12/24 00:36:42;;;;;;;14.30;12.63;;;7.40;99.90;;;;;;4956066;29;20215;-67
2021/12/24 00:39:10;;;;;;;15.10;11.48;;;7.70;99.90;;;;;;4956324;29;20200;-68
2021/12/24 00:41:39;;;;;;;12.32;10.57;;;7.80;99.90;;;;;;4955956;29;20206;-67
2021/12/24 00:44:07;;;;;;;12.90;11.70;;;7.80;99.90;;;;;;4955668;28;20748;-68
2021/12/24 00:46:35;;;;;;;12.50;10.77;;;7.90;99.90;;;;;;4955874;28;20191;-68
2021/12/24 00:49:03;;;;;;;12.88;11.02;;;8.00;99.90;;;;;;4955873;29;20220;-68
2021/12/24 00:51:43;;;;;;;14.02;10.38;;;8.10;99.90;;;;;;4955879;29;20628;-68
2021/12/24 00:56:59;;;;;;;10.48;9.32;;;8.30;99.90;;;;;;4975174;28;20234;-68
2021/12/24 00:59:27;;;;;;;10.77;9.77;;;8.40;99.90;;;;;;4975128;28;20233;-68
2021/12/24 01:01:55;;;;;;;12.25;10.10;;;8.40;99.90;;;;;;4975134;28;20679;-66
2021/12/24 01:04:23;;;;;;;11.32;9.98;;;8.40;99.90;;;;;;4974629;28;20219;-66
2021/12/24 01:06:53;;;;;;;13.52;9.52;;;8.50;99.90;;;;;;4973703;28;20293;-68
2021/12/24 01:09:21;;;;;;;9.82;8.82;;;8.50;99.90;;;;;;4947611;29;20299;-68
2021/12/24 01:11:49;;;;;;;11.45;10.35;;;8.40;99.90;;;;;;4936454;29;20235;-68
2021/12/24 01:14:20;;;;;;;12.32;11.02;;;8.30;99.90;;;;;;4936049;29;20315;-69
2021/12/24 01:16:55;;;;;;;11.45;10.25;;;8.30;99.90;;;;;;4936154;29;20263;-68
2021/12/24 01:19:24;;;;;;;12.45;11.25;;;8.20;99.90;;;;;;4936426;29;20266;-67
2021/12/24 01:22:18;;;;;;;12.30;10.98;;;8.30;99.90;;;;;;4936267;29;20675;-68
2021/12/24 01:24:54;;;;;;;12.23;10.88;;;8.30;99.90;;;;;;4969317;28;20266;-71
2021/12/24 01:27:37;;;;;;;12.00;10.77;;;8.30;99.90;;;;;;4966446;28;21137;-70
2021/12/24 01:37:50;;;;;;;11.52;10.43;;;8.20;99.90;;;;;;4954034;28;20309;-70
2021/12/24 01:38:37;;;;;;;12.77;10.63;;;8.10;99.90;;;;;;4955156;29;20673;-71
2021/12/24 01:41:08;;;;;;;11.50;9.40;;;8.10;99.90;;;;;;4955036;29;20298;-71
2021/12/24 01:43:35;;;;;;;12.55;11.30;;;8.10;99.90;;;;;;4954751;29;20196;-70
2021/12/24 01:46:04;;;;;;;12.18;10.32;;;7.90;99.90;;;;;;4954724;29;20239;-71
2021/12/24 01:48:32;;;;;;;11.35;10.20;;;7.80;99.90;;;;;;4955090;29;20204;-70
2021/12/24 01:51:00;;;;;;;14.02;12.52;;;7.80;99.90;;;;;;4954729;29;20336;-71
2021/12/24 01:53:33;;;;;;;12.55;10.48;;;7.70;99.90;;;;;;4961056;28;20249;-71
2021/12/24 01:56:01;;;;;;;13.27;11.05;;;7.70;99.90;;;;;;4973842;28;20225;-70
2021/12/24 01:58:29;;;;;;;14.45;11.82;;;7.70;99.90;;;;;;4973960;28;20226;-70
2021/12/24 02:00:58;;;;;;;12.18;10.98;;;7.60;99.90;;;;;;4973933;28;20237;-70
2021/12/24 02:03:27;;;;;;;15.52;10.90;;;7.60;99.90;;;;;;4973418;28;20278;-68
2021/12/24 02:05:55;;;;;;;12.32;11.13;;;7.70;99.90;;;;;;4973650;28;20203;-70
2021/12/24 02:08:23;;;;;;;11.65;10.45;;;7.90;99.90;;;;;;4973876;28;20627;-70
2021/12/24 02:10:51;;;;;;;11.35;10.05;;;8.00;99.90;;;;;;4973790;28;20218;-70
2021/12/24 02:13:19;;;;;;;14.15;10.30;;;8.10;99.90;;;;;;4965766;28;20203;-71
2021/12/24 02:16:02;;;;;;;11.40;10.20;;;8.20;99.90;;;;;;4945616;29;20303;-70
2021/12/24 02:29:51;;;;;;;11.35;10.05;;;8.50;99.90;;;;;;4942666;29;20646;-70
2021/12/24 02:32:18;;;;;;;10.43;9.43;;;8.50;99.90;;;;;;4945647;29;20220;-70
2021/12/24 02:34:47;;;;;;;12.52;9.32;;;8.60;99.90;;;;;;4933903;29;20647;-70
2021/12/24 02:37:18;;;;;;;10.27;9.00;;;8.50;99.90;;;;;;4934151;29;20693;-70
2021/12/24 02:39:46;;;;;;;10.38;8.90;;;8.60;99.90;;;;;;4917260;29;20284;-70
2021/12/24 02:42:16;;;;;;;11.55;8.75;;;8.60;99.90;;;;;;4933559;29;20584;-70
2021/12/24 02:44:47;;;;;;;9.45;8.48;;;8.60;99.90;;;;;;4933920;29;20704;-68
2021/12/24 02:47:37;;;;;;;10.23;8.75;;;8.70;99.90;;;;;;4934319;29;20219;-69
2021/12/24 02:55:37;;;;;;;8.98;8.18;;;8.80;99.90;;;;;;4965798;28;20221;-70
2021/12/24 02:58:05;;;;;;;11.50;9.30;;;8.80;99.90;;;;;;4973181;28;20230;-70
2021/12/24 03:00:33;;;;;;;9.02;8.20;;;8.80;99.90;;;;;;4973064;28;20281;-70
2021/12/24 03:03:01;;;;;;;9.50;8.60;;;8.80;99.90;;;;;;4972806;28;20552;-68
2021/12/24 03:05:29;;;;;;;10.57;8.45;;;8.80;99.90;;;;;;4972565;28;20254;-70
2021/12/24 03:07:58;;;;;;;9.75;8.75;;;8.90;99.90;;;;;;4973142;28;20233;-70
2021/12/24 03:10:26;;;;;;;10.43;7.47;;;8.90;99.90;;;;;;4972950;28;20226;-70
2021/12/24 03:12:53;;;;;;;9.27;8.18;;;8.80;99.90;;;;;;4972647;28;20212;-70
2021/12/24 03:15:24;;;;;;;10.60;8.75;;;8.80;99.90;;;;;;4972494;28;20722;-70
2021/12/24 03:17:56;;;;;;;9.80;8.88;;;8.70;99.90;;;;;;4973040;28;20297;-70
2021/12/24 03:20:24;;;;;;;9.63;8.70;;;8.60;99.90;;;;;;4955674;28;20226;-70
2021/12/24 03:23:05;;;;;;;10.68;9.57;;;8.30;99.90;;;;;;4943027;28;20250;-70
2021/12/24 03:25:35;;;;;;;9.27;8.45;;;8.00;99.90;;;;;;4972183;28;20321;-70
2021/12/24 03:28:03;;;;;;;10.20;9.20;;;7.80;99.90;;;;;;4959053;28;20744;-70
2021/12/24 03:30:32;;;;;;;11.20;9.25;;;7.70;99.90;;;;;;4953169;29;20254;-70
2021/12/24 03:33:00;;;;;;;12.48;8.88;;;7.60;99.90;;;;;;4953127;29;20195;-70
2021/12/24 03:35:28;;;;;;;12.50;9.32;;;7.60;99.90;;;;;;4953186;29;20219;-70
2021/12/24 03:37:56;;;;;;;10.65;9.30;;;7.60;99.90;;;;;;4953295;29;20235;-70
2021/12/24 03:40:24;;;;;;;10.60;9.60;;;7.60;99.90;;;;;;4953162;29;20278;-70
2021/12/24 03:42:53;;;;;;;9.80;8.90;;;7.70;99.90;;;;;;4952746;29;20258;-70
2021/12/24 03:45:27;;;;;;;9.00;8.10;;;7.70;99.90;;;;;;4935890;29;20227;-71
2021/12/24 03:47:59;;;;;;;11.23;9.00;;;7.90;99.90;;;;;;4953251;29;20648;-70
2021/12/24 03:50:41;;;;;;;10.02;9.02;;;8.00;99.90;;;;;;4953055;29;20253;-69
2021/12/24 03:55:51;;;;;;;9.70;8.73;;;7.90;99.90;;;;;;4974993;28;20237;-70
2021/12/24 03:58:21;;;;;;;11.88;9.18;;;7.80;99.90;;;;;;4993492;23;20300;-64
2021/12/24 04:00:48;;;;;;;9.88;8.88;;;7.70;99.90;;;;;;4965521;28;20242;-64
2021/12/24 04:03:17;;;;;;;10.85;8.15;;;7.70;99.90;;;;;;4974889;28;20237;-65
2021/12/24 04:05:46;;;;;;;11.27;9.20;;;7.70;99.90;;;;;;4975819;28;20222;-65
2021/12/24 04:08:15;;;;;;;10.32;9.35;;;7.80;99.90;;;;;;4975949;28;20305;-65
2021/12/24 04:10:42;;;;;;;10.20;9.20;;;7.90;99.90;;;;;;4975886;28;20322;-65
2021/12/24 04:13:13;;;;;;;9.50;8.55;;;7.90;99.90;;;;;;4975810;28;20289;-65
2021/12/24 04:15:42;;;;;;;9.35;8.55;;;8.20;99.90;;;;;;4976050;28;20301;-65
2021/12/24 04:18:19;;;;;;;7.85;7.15;;;8.40;99.90;;;;;;4975877;28;20242;-64
2021/12/24 04:26:23;;;;;;;8.95;8.13;;;8.70;99.90;;;;;;4909904;29;20240;-64
2021/12/24 04:28:54;;;;;;;9.98;8.48;;;8.40;99.90;;;;;;4956711;29;20222;-65
2021/12/24 04:31:29;;;;;;;9.63;8.63;;;8.30;99.90;;;;;;4956530;28;20246;-64
2021/12/24 04:34:02;;;;;;;8.60;7.85;;;8.00;99.90;;;;;;4956346;29;20286;-65
2021/12/24 04:36:45;;;;;;;8.85;7.95;;;8.20;99.90;;;;;;4956317;29;20239;-63
2021/12/24 04:39:40;;;;;;;9.77;8.15;;;8.40;99.90;;;;;;4952873;29;20768;-64
2021/12/24 05:01:44;;;;;;;6.07;5.18;;;9.30;99.90;;;;;;4945293;29;20215;-63
2021/12/24 05:04:14;;;;;;;6.35;5.85;;;9.30;99.90;;;;;;4944240;29;20200;-63
2021/12/24 05:06:50;;;;;;;6.85;6.25;;;9.30;99.90;;;;;;4943900;29;20282;-63
2021/12/24 05:09:23;;;;;;;6.30;5.75;;;9.20;99.90;;;;;;4945423;29;20255;-65
2021/12/24 05:11:51;;;;;;;7.35;6.68;;;9.10;99.90;;;;;;4944091;29;20788;-64
2021/12/24 05:14:19;;;;;;;13.93;6.13;;;9.10;99.90;;;;;;4944284;29;20295;-65
2021/12/24 05:16:49;;;;;;;6.78;6.18;;;9.00;99.90;;;;;;4945379;29;20294;-63
2021/12/24 05:22:04;;;;;;;7.45;6.00;;;8.80;99.90;;;;;;4946205;29;20210;-64
2021/12/24 05:24:32;;;;;;;8.60;7.80;;;8.80;99.90;;;;;;4948958;28;20235;-61
2021/12/24 05:27:02;;;;;;;6.38;5.78;;;8.80;99.90;;;;;;4947288;28;20306;-64
2021/12/24 05:29:30;;;;;;;7.32;6.40;;;8.80;99.90;;;;;;4950585;28;20654;-64
2021/12/24 05:31:58;;;;;;;6.93;5.25;;;8.80;99.90;;;;;;4948708;28;20298;-63
2021/12/24 05:34:27;;;;;;;7.95;6.05;;;8.80;99.90;;;;;;4945407;28;20224;-62
2021/12/24 05:36:55;;;;;;;6.60;6.00;;;8.90;99.90;;;;;;4944381;28;20224;-63
2021/12/24 05:39:23;;;;;;;7.35;6.65;;;8.90;99.90;;;;;;4945384;29;20311;-63
2021/12/24 05:41:51;;;;;;;6.47;5.88;;;8.90;99.90;;;;;;4944001;29;20199;-64
2021/12/24 05:44:19;;;;;;;7.78;5.82;;;8.90;99.90;;;;;;4944062;29;20199;-64
2021/12/24 05:46:47;;;;;;;6.72;6.00;;;9.00;99.90;;;;;;4945068;29;20282;-64
2021/12/24 05:49:15;;;;;;;6.65;5.55;;;9.00;99.90;;;;;;4943787;29;20780;-65
2021/12/24 05:51:45;;;;;;;6.22;5.70;;;9.10;99.90;;;;;;4942953;29;20306;-65
2021/12/24 05:54:13;;;;;;;9.32;5.88;;;9.10;99.90;;;;;;4944424;29;20279;-64
2021/12/24 05:56:42;;;;;;;5.47;5.05;;;9.20;99.90;;;;;;4944386;29;20286;-63
2021/12/24 05:59:10;;;;;;;6.70;6.07;;;9.10;99.90;;;;;;4948500;28;20783;-63
2021/12/24 06:01:38;;;;;;;6.53;5.82;;;9.20;99.90;;;;;;4945518;28;20223;-63
2021/12/24 06:04:06;;;;;;;8.05;5.65;;;9.10;99.90;;;;;;4944573;29;20203;-63
2021/12/24 06:06:34;;;;;;;7.28;6.10;;;8.90;99.90;;;;;;4943333;29;20361;-64
2021/12/24 06:09:04;;;;;;;6.90;6.35;;;8.70;99.90;;;;;;4942873;29;20803;-64
2021/12/24 06:11:32;;;;;;;7.22;6.45;;;8.60;99.90;;;;;;4943141;29;20220;-63
2021/12/24 06:14:08;;;;;;;7.72;6.40;;;8.60;99.90;;;;;;4943026;29;20223;-63
2021/12/24 06:16:46;;;;;;;7.72;7.03;;;8.60;99.90;;;;;;4943034;29;20675;-64
2021/12/24 06:19:14;;;;;;;7.40;6.75;;;8.60;99.90;;;;;;4943483;29;20278;-64
2021/12/24 06:21:42;;;;;;;7.85;7.13;;;8.60;99.90;;;;;;4942983;29;20270;-63
2021/12/24 06:24:13;;;;;;;9.32;7.80;;;8.70;99.90;;;;;;4942912;29;20756;-63
2021/12/24 06:26:40;;;;;;;9.00;8.13;;;8.60;99.90;;;;;;4945313;29;20278;-63
2021/12/24 06:29:08;;;;;;;8.13;7.40;;;8.50;99.90;;;;;;4948612;28;20243;-63
2021/12/24 06:31:36;;;;;;;9.77;8.32;;;8.30;99.90;;;;;;4945440;28;20215;-63
2021/12/24 06:34:05;;;;;;;10.43;8.63;;;8.10;99.90;;;;;;4944506;29;20282;-63
2021/12/24 06:36:36;;;;;;;10.93;9.80;;;8.00;99.90;;;;;;4943401;29;20703;-63
2021/12/24 06:39:05;;;;;;;9.52;8.63;;;8.10;99.90;;;;;;4946159;29;20228;-64
2021/12/24 06:41:35;;;;;;;11.35;10.25;;;8.20;99.90;;;;;;4944672;29;20279;-63
2021/12/24 06:44:04;;;;;;;12.32;8.32;;;8.20;99.90;;;;;;4945133;29;20283;-64
2021/12/24 06:46:32;;;;;;;11.57;9.77;;;8.10;99.90;;;;;;4943761;29;20202;-62
2021/12/24 06:49:00;;;;;;;10.98;9.88;;;8.10;99.90;;;;;;4943110;29;20294;-61
2021/12/24 06:51:28;;;;;;;10.75;9.75;;;8.00;99.90;;;;;;4944715;29;20203;-62
2021/12/24 06:53:56;;;;;;;12.70;10.07;;;7.90;99.90;;;;;;4943154;29;20264;-62
2021/12/24 06:56:24;;;;;;;10.85;9.75;;;7.70;99.90;;;;;;4942129;29;20235;-63
2021/12/24 06:58:53;;;;;;;12.20;10.13;;;7.70;99.90;;;;;;4948779;28;20326;-62
2021/12/24 07:01:21;;;;;;;10.80;9.75;;;7.70;99.90;;;;;;4945896;28;20307;-62
2021/12/24 07:03:49;;;;;;;10.80;9.30;;;7.70;99.90;;;;;;4944449;29;20203;-63
2021/12/24 07:06:17;;;;;;;10.80;9.05;;;7.80;99.90;;;;;;4943993;29;20204;-63
2021/12/24 07:08:45;;;;;;;11.85;10.60;;;8.00;99.90;;;;;;4941842;29;20307;-63
2021/12/24 07:11:13;;;;;;;10.10;8.95;;;8.00;99.90;;;;;;4943382;29;20219;-63
2021/12/24 07:13:41;;;;;;;11.85;8.98;;;8.00;99.90;;;;;;4945794;29;20225;-63
2021/12/24 07:16:10;;;;;;;10.70;8.40;;;8.00;99.90;;;;;;4945166;29;20286;-64
2021/12/24 07:18:38;;;;;;;9.32;8.43;;;8.10;99.90;;;;;;4943025;28;20215;-63
2021/12/24 07:21:07;;;;;;;8.70;6.85;;;8.10;99.90;;;;;;4943664;29;20223;-63
2021/12/24 07:23:34;;;;;;;8.18;7.45;;;8.10;99.90;;;;;;4942601;29;20220;-63
2021/12/24 07:26:03;;;;;;;6.90;6.10;;;8.10;99.90;;;;;;4942696;29;20227;-63
2021/12/24 07:28:31;;;;;;;6.75;6.05;;;8.30;99.90;;;;;;4945759;28;20311;-63
2021/12/24 07:30:59;;;;;;;6.55;5.75;;;8.40;99.90;;;;;;4946712;28;20282;-62
2021/12/24 07:33:28;;;;;;;6.65;6.05;;;8.30;99.90;;;;;;4943980;29;20791;-62
2021/12/24 07:35:56;;;;;;;8.90;6.72;;;8.30;99.90;;;;;;4942787;29;20278;-64
2021/12/24 07:38:24;;;;;;;6.30;5.70;;;8.40;99.90;;;;;;4941757;29;20258;-62
2021/12/24 07:40:52;;;;;;;12.07;5.88;;;8.40;99.90;;;;;;4942102;29;20239;-62
2021/12/24 07:43:20;;;;;;;6.25;5.65;;;8.40;99.90;;;;;;4940368;29;20307;-62
2021/12/24 07:45:49;;;;;;;7.18;6.00;;;8.30;99.90;;;;;;4944905;28;20290;-63
2021/12/24 07:48:26;;;;;;;6.90;6.20;;;8.30;99.90;;;;;;4942402;29;20254;-62
2021/12/24 07:53:43;;;;;;;8.82;6.60;;;8.10;99.90;;;;;;4942255;29;20616;-62
2021/12/24 07:56:11;;;;;;;9.88;6.38;;;8.10;99.90;;;;;;4941780;29;20290;-63
2021/12/24 07:58:39;;;;;;;6.10;5.50;;;8.00;99.90;;;;;;4943875;28;20333;-63
2021/12/24 08:01:07;;;;;;;8.23;7.43;;;8.10;99.90;;;;;;4944186;28;20295;-63
2021/12/24 08:03:35;;;;;;;8.57;7.70;;;8.10;99.90;;;;;;4941915;29;20203;-63
2021/12/24 08:06:05;;;;;;;9.13;7.07;;;8.20;99.90;;;;;;4942163;29;20270;-63
2021/12/24 08:08:33;;;;;;;7.88;7.07;;;8.10;99.90;;;;;;4940346;29;20645;-63
2021/12/24 08:11:01;;;;;;;7.38;6.68;;;8.20;99.90;;;;;;4940331;28;20294;-63
2021/12/24 08:13:29;;;;;;;7.45;6.50;;;8.10;99.90;;;;;;4939797;29;20298;-63
2021/12/24 08:15:57;;;;;;;10.00;8.65;;;8.20;99.90;;;;;;4941087;28;20741;-64
2021/12/24 08:18:25;;;;;;;10.48;7.95;;;8.20;99.90;;;;;;4941651;29;20738;-63
2021/12/24 08:20:53;;;;;;;9.45;7.60;;;8.20;99.90;;;;;;4940378;29;20200;-64
2021/12/24 08:23:22;;;;;;;11.50;9.70;;;8.20;99.90;;;;;;4940304;29;20274;-63
2021/12/24 08:25:53;;;;;;;10.85;9.25;;;8.30;99.90;;;;;;4941285;29;20604;-63
2021/12/24 08:28:21;;;;;;;13.48;9.80;;;8.20;99.90;;;;;;4945826;28;20656;-64
2021/12/24 08:30:49;;;;;;;10.77;9.68;;;8.20;99.90;;;;;;4946794;28;20269;-63
2021/12/24 08:33:16;;;;;;;10.27;9.00;;;8.20;99.90;;;;;;4941693;29;20239;-64
2021/12/24 08:35:45;;;;;;;9.40;8.50;;;8.20;99.90;;;;;;4940807;28;20614;-63
2021/12/24 08:38:12;;;;;;;10.50;9.40;;;8.40;99.90;;;;;;4941031;29;20322;-64
2021/12/24 08:40:42;;;;;;;11.50;10.40;;;8.40;99.90;;;;;;4936100;29;20279;-63
2021/12/24 08:43:10;;;;;;;12.40;10.90;;;8.40;99.90;;;;;;4941771;29;20196;-63
2021/12/24 08:45:37;;;;;;;12.18;10.95;;;8.30;99.90;;;;;;4955913;29;20238;-65
2021/12/24 08:48:06;;;;;;;11.43;9.70;;;8.20;99.90;;;;;;4955674;29;20242;-64
2021/12/24 08:50:34;;;;;;;9.90;8.40;;;8.10;99.90;;;;;;4945119;29;20287;-64
2021/12/24 08:53:03;;;;;;;11.23;8.63;;;8.10;99.90;;;;;;4954112;29;20243;-64
2021/12/24 08:55:31;;;;;;;9.20;8.30;;;8.00;99.90;;;;;;4955884;29;20312;-64
2021/12/24 08:58:00;;;;;;;9.75;8.15;;;8.10;99.90;;;;;;4957943;28;20929;-64
2021/12/24 09:00:28;;;;;;;9.52;8.38;;;8.10;99.90;;;;;;4967062;28;20202;-64
2021/12/24 09:02:56;;;;;;;11.55;9.10;;;8.10;99.90;;;;;;4974270;28;20687;-64
2021/12/24 09:05:25;;;;;;;9.50;8.43;;;8.10;99.90;;;;;;4940779;29;20207;-65
2021/12/24 09:07:53;;;;;;;9.07;8.18;;;8.20;99.90;;;;;;4935999;29;20283;-64
2021/12/24 09:10:21;;;;;;;10.20;8.68;;;8.20;99.90;;;;;;4936144;29;20279;-64
2021/12/24 09:12:50;;;;;;;9.38;8.38;;;8.30;99.90;;;;;;4935979;29;20208;-64
2021/12/24 09:15:19;;;;;;;10.10;9.10;;;8.30;99.90;;;;;;4935925;29;20661;-64
2021/12/24 09:17:48;;;;;;;10.13;8.50;;;8.30;99.90;;;;;;4936045;29;20224;-64
2021/12/24 09:20:21;;;;;;;11.80;9.55;;;8.30;99.90;;;;;;4936341;29;20279;-64
2021/12/24 09:22:49;;;;;;;10.05;8.85;;;8.40;99.90;;;;;;4953955;29;20235;-65
2021/12/24 09:25:19;;;;;;;11.55;7.97;;;8.40;99.90;;;;;;4955505;29;20281;-65
2021/12/24 09:27:46;;;;;;;9.50;8.60;;;8.40;99.90;;;;;;4956089;28;20242;-64
2021/12/24 09:30:14;;;;;;;10.70;9.57;;;8.40;99.90;;;;;;4966162;28;20229;-65
2021/12/24 09:32:44;;;;;;;11.30;9.15;;;8.40;99.90;;;;;;4974079;28;20246;-63
2021/12/24 09:35:12;;;;;;;10.57;9.05;;;8.40;99.90;;;;;;4969795;28;20680;-64
2021/12/24 09:37:41;;;;;;;12.38;8.80;;;8.50;99.90;;;;;;4954804;29;20206;-64
2021/12/24 09:40:12;;;;;;;11.55;10.02;;;8.50;99.90;;;;;;4954952;29;20227;-64
2021/12/24 09:42:40;;;;;;;13.10;9.20;;;8.50;99.90;;;;;;4954756;29;20676;-64
2021/12/24 09:45:10;;;;;;;12.07;9.45;;;8.60;99.90;;;;;;4946384;29;20201;-64
2021/12/24 09:47:38;;;;;;;9.25;7.45;;;8.60;99.90;;;;;;4942648;29;20206;-65
2021/12/24 09:50:10;;;;;;;8.02;7.22;;;8.60;99.90;;;;;;4943640;29;20307;-64
2021/12/24 09:52:39;;;;;;;12.57;7.65;;;8.70;99.90;;;;;;4942046;28;20291;-64
2021/12/24 09:55:09;;;;;;;8.13;7.32;;;8.70;99.90;;;;;;4944171;29;20601;-64
2021/12/24 09:57:37;;;;;;;8.35;7.10;;;8.80;99.90;;;;;;4945852;29;20809;-64
2021/12/24 10:00:09;;;;;;;7.07;5.43;;;8.80;99.90;;;;;;4965854;23;20282;-70
2021/12/24 10:02:41;;;;;;;7.60;5.63;;;8.80;99.90;;;;;;4946465;29;20231;-70
2021/12/24 10:05:33;;;;;;;7.82;5.78;;;8.90;99.90;;;;;;4946773;29;20680;-70
2021/12/24 10:08:10;;;;;;;11.80;7.50;;;8.90;99.90;;;;;;4929095;29;20227;-70
2021/12/24 10:10:43;;;;;;;10.02;6.88;;;8.90;99.90;;;;;;4954325;29;20270;-68
2021/12/24 10:13:41;;;;;;;11.40;8.45;;;9.00;99.90;;;;;;4946695;29;20280;-69
2021/12/24 10:16:12;;;;;;;10.38;7.10;;;9.10;99.90;;;;;;4892297;29;20207;-67
2021/12/24 10:18:43;;;;;;;7.40;6.18;;;9.10;99.90;;;;;;4934070;29;20294;-72
2021/12/24 10:21:15;;;;;;;9.38;7.60;;;9.10;99.90;;;;;;4926155;29;20207;-69
2021/12/24 10:23:52;;;;;;;9.93;7.22;;;9.10;99.90;;;;;;4914955;29;20229;-70
2021/12/24 10:26:23;;;;;;;7.05;6.32;;;9.10;99.90;;;;;;4921828;29;20227;-68
2021/12/24 10:28:54;;;;;;;8.13;6.45;;;9.10;99.90;;;;;;4928222;29;20236;-70
2021/12/24 10:31:24;;;;;;;9.30;7.40;;;9.00;99.90;;;;;;4929354;29;20212;-69
2021/12/24 10:34:06;;;;;;;10.65;7.90;;;9.00;99.90;;;;;;4934451;29;20227;-67
2021/12/24 10:36:57;;;;;;;11.63;8.45;;;9.00;99.90;;;;;;4934812;29;20581;-68
2021/12/24 10:39:27;;;;;;;7.38;6.20;;;8.90;99.90;;;;;;4933920;29;20662;-69
2021/12/24 10:41:57;;;;;;;12.80;9.02;;;8.90;99.90;;;;;;4934277;29;20234;-70
2021/12/24 10:44:27;;;;;;;11.35;9.07;;;8.90;99.90;;;;;;4934452;29;20275;-69
2021/12/24 10:47:02;;;;;;;13.68;7.95;;;8.90;99.90;;;;;;4934313;29;20220;-69
2021/12/24 10:49:50;;;;;;;13.02;7.15;;;8.90;99.90;;;;;;4934235;29;20719;-72
2021/12/24 10:55:09;;;;;;;8.50;6.75;;;8.80;99.90;;;;;;4934220;29;20307;-71
2021/12/24 10:57:38;;;;;;;10.20;7.47;;;8.90;99.90;;;;;;4931887;29;20889;-70
2021/12/24 11:00:13;;;;;;;15.13;7.55;;;8.80;99.90;;;;;;4923795;29;20315;-68
2021/12/24 11:02:42;;;;;;;9.05;7.95;;;8.80;99.90;;;;;;4920277;29;20232;-70
2021/12/24 11:05:28;;;;;;;9.85;7.15;;;8.90;99.90;;;;;;4933912;29;20200;-68
2021/12/24 11:07:58;;;;;;;9.57;8.18;;;8.90;99.90;;;;;;4933918;29;20266;-70
2021/12/24 11:10:28;;;;;;;12.15;8.35;;;8.80;99.90;;;;;;4934164;29;20280;-70
2021/12/24 11:12:59;;;;;;;12.65;9.63;;;8.90;99.90;;;;;;4933655;29;20228;-69
2021/12/24 11:15:31;;;;;;;9.77;8.60;;;8.80;99.90;;;;;;4924260;29;20595;-68
2021/12/24 11:18:02;;;;;;;10.52;8.20;;;8.90;99.90;;;;;;4933835;29;20688;-69
2021/12/24 11:20:31;;;;;;;12.35;9.00;;;8.90;99.90;;;;;;4933388;29;20315;-67
2021/12/24 11:23:04;;;;;;;9.70;8.23;;;8.90;99.90;;;;;;4933285;29;20264;-69
2021/12/24 11:25:35;;;;;;;12.70;9.13;;;9.00;99.90;;;;;;4933857;29;20279;-69
2021/12/24 11:28:03;;;;;;;11.55;8.85;;;9.00;99.90;;;;;;4922000;29;20235;-69
2021/12/24 11:30:35;;;;;;;13.38;9.75;;;9.00;99.90;;;;;;4929145;29;20234;-69
2021/12/24 11:33:03;;;;;;;11.02;8.85;;;9.00;99.90;;;;;;4933487;29;20199;-70
2021/12/24 11:35:32;;;;;;;9.75;8.05;;;8.90;99.90;;;;;;4933664;29;20224;-68
2021/12/24 11:38:02;;;;;;;11.73;9.32;;;8.90;99.90;;;;;;4936622;29;20235;-71
2021/12/24 11:40:30;;;;;;;10.00;9.00;;;8.90;99.90;;;;;;4946723;29;20228;-71
2021/12/24 11:43:03;;;;;;;10.10;9.00;;;8.90;99.90;;;;;;4941255;29;20290;-70
2021/12/24 11:45:33;;;;;;;10.57;8.00;;;8.90;99.90;;;;;;4933725;29;20665;-69
2021/12/24 11:48:03;;;;;;;9.27;8.32;;;8.90;99.90;;;;;;4933704;29;20231;-68
2021/12/24 11:50:31;;;;;;;9.57;7.93;;;8.90;99.90;;;;;;4933643;29;20258;-69
2021/12/24 11:53:04;;;;;;;8.93;7.82;;;8.90;99.90;;;;;;4919467;29;20220;-69
2021/12/24 11:55:35;;;;;;;10.20;8.10;;;8.90;99.90;;;;;;4914676;29;20311;-69
2021/12/24 11:58:08;;;;;;;10.35;8.48;;;8.90;99.90;;;;;;4917721;29;20204;-71
2021/12/24 12:00:40;;;;;;;10.10;9.20;;;8.90;99.90;;;;;;4924132;29;20304;-67
2021/12/24 12:03:10;;;;;;;17.05;9.10;;;8.90;99.90;;;;;;4930766;29;20215;-69
2021/12/24 12:05:41;;;;;;;10.30;8.82;;;8.90;99.90;;;;;;4921790;29;20688;-68
2021/12/24 12:08:39;;;;;;;10.75;8.65;;;9.00;99.90;;;;;;4918393;29;20200;-69
2021/12/24 12:11:16;;;;;;;10.70;8.25;;;9.00;99.90;;;;;;4910974;29;20257;-70
2021/12/24 12:13:51;;;;;;;10.30;8.82;;;9.10;99.90;;;;;;4913929;29;20232;-68
2021/12/24 12:16:21;;;;;;;10.00;8.02;;;9.10;99.90;;;;;;4933447;29;20309;-69
2021/12/24 12:19:03;;;;;;;11.48;8.50;;;9.10;99.90;;;;;;4937218;29;20196;-70
2021/12/24 12:21:40;;;;;;;9.20;7.65;;;9.20;99.90;;;;;;4937452;29;20278;-66
2021/12/24 12:27:16;;;;;;;9.75;7.75;;;9.30;99.90;;;;;;4918265;29;20232;-69
2021/12/24 12:29:45;;;;;;;8.30;7.40;;;9.30;99.90;;;;;;4929119;29;20232;-70
2021/12/24 12:32:41;;;;;;;8.38;6.53;;;9.20;99.90;;;;;;4935698;29;20229;-73
2021/12/24 12:35:10;;;;;;;13.65;7.78;;;9.20;99.90;;;;;;4918213;29;20659;-71
2021/12/24 12:37:45;;;;;;;8.45;6.93;;;9.20;99.90;;;;;;4940223;29;20240;-68
2021/12/24 12:40:35;;;;;;;7.70;6.93;;;9.20;99.90;;;;;;4920730;29;20282;-69
2021/12/24 12:43:14;;;;;;;7.85;6.82;;;9.20;99.90;;;;;;4922549;29;20299;-69
2021/12/24 12:46:05;;;;;;;8.00;6.53;;;9.20;99.90;;;;;;4921070;29;20207;-71
2021/12/24 12:48:50;;;;;;;9.65;6.25;;;9.20;99.90;;;;;;4912869;29;20207;-70
2021/12/24 12:51:20;;;;;;;6.20;5.60;;;9.30;99.90;;;;;;4923790;29;20199;-69
2021/12/24 12:53:50;;;;;;;9.45;6.82;;;9.20;99.90;;;;;;4921358;29;20304;-70
2021/12/24 12:56:23;;;;;;;7.55;6.85;;;8.60;99.90;;;;;;4918497;29;20213;-72
2021/12/24 12:58:58;;;;;;;8.48;7.78;;;9.20;99.90;;;;;;4919694;29;20195;-73
2021/12/24 13:01:26;;;;;;;9.45;8.27;;;9.10;99.90;;;;;;4919951;29;20288;-70
2021/12/24 13:04:12;;;;;;;10.88;9.77;;;9.00;99.90;;;;;;4929396;29;20216;-71
2021/12/24 13:06:55;;;;;;;10.40;9.40;;;8.90;99.90;;;;;;4931551;29;20364;-70
2021/12/24 13:09:32;;;;;;;14.73;9.95;;;8.90;99.90;;;;;;4924669;29;20348;-70
2021/12/24 13:12:03;;;;;;;14.27;10.60;;;8.80;99.90;;;;;;4927809;29;20200;-74
2021/12/24 13:14:35;;;;;;;11.15;9.70;;;8.80;99.90;;;;;;4917390;29;20718;-72
2021/12/24 13:17:19;;;;;;;12.02;10.85;;;8.70;99.90;;;;;;4931154;29;20326;-70
2021/12/24 13:20:08;;;;;;;13.00;10.30;;;8.70;99.90;;;;;;4928550;29;20315;-71
2021/12/24 13:22:37;;;;;;;12.70;10.77;;;8.70;99.90;;;;;;4924108;29;20236;-74
2021/12/24 13:25:10;;;;;;;11.98;10.68;;;8.60;99.90;;;;;;4919798;29;20247;-71
2021/12/24 13:27:44;;;;;;;12.15;10.82;;;8.60;99.90;;;;;;4914743;29;20250;-70
2021/12/24 13:30:17;;;;;;;12.68;9.60;;;8.50;99.90;;;;;;4917880;29;20228;-69
2021/12/24 13:32:47;;;;;;;11.75;10.45;;;8.40;99.90;;;;;;4912451;29;20280;-72
2021/12/24 13:35:17;;;;;;;13.23;10.82;;;8.40;99.90;;;;;;4919834;29;20292;-73
2021/12/24 13:37:46;;;;;;;12.90;11.60;;;8.30;99.90;;;;;;4912147;29;20292;-70
2021/12/24 13:40:16;;;;;;;12.75;10.63;;;8.30;99.90;;;;;;4917364;29;20260;-73
2021/12/24 13:42:48;;;;;;;12.82;11.20;;;8.30;99.90;;;;;;4919981;29;20288;-73
2021/12/24 13:45:18;;;;;;;12.18;10.77;;;8.30;99.90;;;;;;4922363;29;20250;-72
2021/12/24 13:47:55;;;;;;;14.20;10.63;;;8.30;99.90;;;;;;4932019;29;20617;-70
2021/12/24 13:55:58;;;;;;;10.98;10.07;;;8.30;99.90;;;;;;4922274;29;20724;-68
2021/12/24 13:58:28;;;;;;;11.02;9.93;;;8.30;99.90;;;;;;4921233;29;20283;-69
2021/12/24 14:00:59;;;;;;;12.13;10.38;;;8.30;99.90;;;;;;4929149;29;20312;-72
2021/12/24 14:03:29;;;;;;;11.55;10.45;;;8.30;99.90;;;;;;4925522;29;20729;-68
2021/12/24 14:06:00;;;;;;;12.02;10.25;;;8.30;99.90;;;;;;4935432;29;20309;-70
2021/12/24 14:08:30;;;;;;;12.23;10.85;;;8.30;99.90;;;;;;4935476;29;20239;-70
2021/12/24 14:11:05;;;;;;;10.27;9.30;;;8.30;99.90;;;;;;4935469;29;20716;-72
2021/12/24 14:13:39;;;;;;;10.70;9.70;;;8.30;99.90;;;;;;4935077;29;20712;-70
2021/12/24 14:16:14;;;;;;;10.55;9.13;;;8.40;99.90;;;;;;4930329;29;20223;-70
2021/12/24 14:18:52;;;;;;;12.80;9.82;;;8.40;99.90;;;;;;4933443;29;20731;-72
2021/12/24 14:24:14;;;;;;;10.75;9.75;;;8.40;99.90;;;;;;4934593;29;20204;-70
2021/12/24 14:26:44;;;;;;;11.35;10.35;;;8.30;99.90;;;;;;4935091;29;20216;-69
2021/12/24 14:29:23;;;;;;;10.98;9.98;;;8.40;99.90;;;;;;4930469;29;20254;-69
2021/12/24 14:31:53;;;;;;;10.30;9.38;;;8.40;99.90;;;;;;4933238;29;20735;-71
2021/12/24 14:34:40;;;;;;;10.32;9.23;;;8.40;99.90;;;;;;4934487;29;20283;-71